»·PEaware :: SWA982 KLAS-KSAN

SWA982 :: KLAS-KSAN

FLIGHT INFORMATION

Flight Status: Arrived
Operator:
Southwest Airlines
More flights by this operator :: More flights under this callsign
Pilot: Ben F. (2808)
Aircraft: BOEING 737-300
(B733)
More flights by this aircraft type
Origin: KLAS McCarran Intl
United States
Destination: KSAN San Diego Intl-Lindbergh
United States
More flights between these airports :: More routes between these airports
Route: +BOACH8 LVELL LUCKI1
File this flight plan on PilotEdge
Remarks:
Altitude:
(Current/Filed)
28,000ft
Speed:
(Current/Filed)
408kts
Departed: 18-Nov-18 05:46 PM
Arrived: 18-Nov-18 06:30 PM
Distance/Time
Traveled:
225nm/0:44
Distance/Time
To Go:
Arrived

Flight Plot

Page will automatically refresh every two minutes.

Flight plan parsing failed; only flown route is shown


Map Options




Map Legend


Flown Route
Filed Route
Departure Airport
Arrival Airport
Navaid (VOR, NDB)
Fix

Horizontal Profiles

Position Reports

Time Latitude Longitude Heading Altitude Ground
Speed
18-Nov-18 17:21 36.079781 -115.146273 342 2148ft 0kts
18-Nov-18 17:22 36.079781 -115.146273 342 2148ft 0kts
18-Nov-18 17:23 36.079781 -115.146273 342 2148ft 0kts
18-Nov-18 17:24 36.079781 -115.146273 342 2148ft 0kts
18-Nov-18 17:25 36.079781 -115.146273 342 2148ft 0kts
18-Nov-18 17:26 36.079781 -115.146273 342 2148ft 0kts
18-Nov-18 17:27 36.079781 -115.146273 342 2148ft 0kts
18-Nov-18 17:28 36.079781 -115.146273 342 2148ft 0kts
18-Nov-18 17:29 36.079781 -115.146273 342 2148ft 0kts
18-Nov-18 17:30 36.079781 -115.146273 342 2148ft 0kts
18-Nov-18 17:31 36.079781 -115.146273 342 2148ft 0kts
18-Nov-18 17:32 36.079781 -115.146273 342 2148ft 0kts
18-Nov-18 17:33 36.079781 -115.146273 342 2148ft 0kts
18-Nov-18 17:34 36.079781 -115.146273 342 2148ft 0kts
18-Nov-18 17:35 36.079781 -115.146273 342 2148ft 0kts
18-Nov-18 17:36 36.079781 -115.146273 342 2148ft 0kts
18-Nov-18 17:37 36.079781 -115.146273 342 2148ft 0kts
18-Nov-18 17:38 36.079781 -115.146272 342 2148ft 0kts
18-Nov-18 17:39 36.079367 -115.146099 340 2148ft 2kts
18-Nov-18 17:40 36.079179 -115.145455 268 2148ft 2kts
18-Nov-18 17:41 36.079341 -115.144877 189 2148ft 1kts
18-Nov-18 17:42 36.079427 -115.144874 181 2148ft 0kts
18-Nov-18 17:43 36.079159 -115.144889 183 2148ft 4kts
18-Nov-18 17:44 36.078300 -115.143977 96 2148ft 14kts
18-Nov-18 17:45 36.078255 -115.136265 90 2148ft 25kts
18-Nov-18 17:46 36.078254 -115.127713 89 2148ft 24kts
18-Nov-18 17:47 36.077429 -115.121490 136 2148ft 2kts
18-Nov-18 17:48 36.076399 -115.122672 270 2148ft 23kts
18-Nov-18 17:49 36.076164 -115.166872 269 2616ft 191kts
18-Nov-18 17:50 36.073265 -115.239898 243 4496ft 238kts
18-Nov-18 17:51 36.011680 -115.282619 200 6492ft 282kts
18-Nov-18 17:52 35.934809 -115.306015 185 7619ft 295kts
18-Nov-18 17:53 35.853500 -115.314659 177 10308ft 313kts
18-Nov-18 17:54 35.758294 -115.303778 175 12073ft 361kts
18-Nov-18 17:55 35.656896 -115.295092 183 14675ft 376kts
18-Nov-18 17:56 35.550436 -115.299604 183 17085ft 391kts
18-Nov-18 17:57 35.440094 -115.304044 183 19058ft 408kts
18-Nov-18 17:58 35.327051 -115.308484 183 19190ft 406kts
18-Nov-18 17:59 35.215069 -115.312879 183 19184ft 407kts
18-Nov-18 18:00 35.101910 -115.317307 183 19252ft 411kts
18-Nov-18 18:01 34.986897 -115.321799 184 21435ft 420kts
18-Nov-18 18:02 34.873463 -115.326212 185 23248ft 431kts
18-Nov-18 18:03 34.755199 -115.340960 204 24955ft 430kts
18-Nov-18 18:04 34.642392 -115.391508 204 26493ft 439kts
18-Nov-18 18:05 34.526824 -115.442040 205 27916ft 448kts
18-Nov-18 18:06 34.411436 -115.492272 205 28186ft 433kts
18-Nov-18 18:07 34.300363 -115.546840 217 28193ft 428kts
18-Nov-18 18:08 34.198385 -115.621313 208 28178ft 434kts
18-Nov-18 18:09 34.089598 -115.672001 206 28184ft 436kts
18-Nov-18 18:10 33.977478 -115.724903 206 28184ft 436kts
18-Nov-18 18:11 33.867303 -115.777719 207 28156ft 435kts
18-Nov-18 18:12 33.756127 -115.831876 206 28129ft 435kts
18-Nov-18 18:13 33.643439 -115.884572 206 26704ft 434kts
18-Nov-18 18:14 33.531680 -115.937201 210 24697ft 429kts
18-Nov-18 18:15 33.459352 -116.040197 239 22708ft 403kts
18-Nov-18 18:16 33.396840 -116.148293 238 21057ft 389kts
18-Nov-18 18:17 33.332942 -116.251064 220 19549ft 388kts
18-Nov-18 18:18 33.236863 -116.309120 208 18143ft 385kts
18-Nov-18 18:19 33.142109 -116.364500 208 16745ft 377kts
18-Nov-18 18:20 33.049371 -116.418662 208 14799ft 364kts
18-Nov-18 18:21 32.973473 -116.484750 232 12624ft 326kts
18-Nov-18 18:22 32.918906 -116.562181 230 11021ft 290kts
18-Nov-18 18:23 32.867991 -116.632529 230 9549ft 288kts
18-Nov-18 18:24 32.822124 -116.695908 230 8278ft 268kts
18-Nov-18 18:25 32.774972 -116.760930 230 7073ft 256kts
18-Nov-18 18:26 32.729630 -116.823299 229 5891ft 242kts
18-Nov-18 18:27 32.688066 -116.882099 246 4947ft 224kts
18-Nov-18 18:28 32.673266 -116.940083 272 4248ft 218kts
18-Nov-18 18:29 32.691235 -117.017195 287 3108ft 196kts
18-Nov-18 18:30 32.703599 -117.066286 286 2333ft 179kts
18-Nov-18 18:31 32.718351 -117.127008 286 1000ft 149kts
18-Nov-18 18:32 32.727504 -117.165245 286 366ft 143kts
18-Nov-18 18:33 32.735232 -117.197945 248 24ft 21kts
18-Nov-18 18:34 32.734776 -117.198355 159 24ft 1kts
18-Nov-18 18:35 32.733799 -117.194855 107 24ft 20kts
18-Nov-18 18:36 32.732863 -117.195477 278 24ft 0kts
18-Nov-18 18:37 32.732863 -117.195477 278 24ft 0kts
18-Nov-18 18:38 32.732863 -117.195477 278 24ft 0kts
18-Nov-18 18:39 32.732863 -117.195477 278 24ft 0kts

Navigation Log

Ident Type
Flight plan parsing failed, navigation log unavailable